createdAt,value
2019-06-10T00:01:22.425Z,83.44
2019-06-10T00:03:51.807Z,83.46
2019-06-10T00:06:20.820Z,83.17
2019-06-10T00:08:47.779Z,82.86
2019-06-10T00:11:14.875Z,82.46
2019-06-10T00:13:42.038Z,82.90
2019-06-10T00:16:11.292Z,82.44
2019-06-10T00:18:42.151Z,82.75
2019-06-10T00:21:08.322Z,82.71
2019-06-10T00:23:35.626Z,83.40
2019-06-10T00:26:05.805Z,84.09
2019-06-10T00:28:31.943Z,83.88
2019-06-10T00:31:01.152Z,84.09
2019-06-10T00:33:28.165Z,83.82
2019-06-10T00:35:55.302Z,84.06
2019-06-10T00:38:22.419Z,82.98
2019-06-10T00:40:51.292Z,83.19
2019-06-10T00:43:21.192Z,83.06
2019-06-10T00:45:48.375Z,83.22
2019-06-10T00:48:25.254Z,82.46
2019-06-10T00:50:44.713Z,83.14
2019-06-10T00:53:14.321Z,83.20
2019-06-10T00:55:41.707Z,83.73
2019-06-10T00:58:11.859Z,84.20
2019-06-10T01:00:41.166Z,83.49
2019-06-10T01:03:08.428Z,83.43
2019-06-10T01:05:35.581Z,84.05
2019-06-10T01:08:04.499Z,84.20
2019-06-10T01:10:31.761Z,83.96
2019-06-10T01:13:00.833Z,83.82
2019-06-10T01:15:27.930Z,84.39
2019-06-10T01:17:55.050Z,84.62
2019-06-10T01:20:22.180Z,84.71
2019-06-10T01:22:51.494Z,84.84
2019-06-10T01:25:18.362Z,85.14
2019-06-10T01:27:45.580Z,85.12
2019-06-10T01:30:20.569Z,84.69
2019-06-10T01:32:42.391Z,84.72
2019-06-10T01:35:11.565Z,84.38
2019-06-10T01:37:41.243Z,84.70
2019-06-10T01:40:08.480Z,84.85
2019-06-10T01:42:35.582Z,84.24
2019-06-10T01:45:04.408Z,84.68
2019-06-10T01:47:31.698Z,84.39
2019-06-10T01:50:00.686Z,84.56
2019-06-10T01:52:27.834Z,84.49
2019-06-10T01:54:54.910Z,84.63
2019-06-10T01:57:23.427Z,84.36
2019-06-10T01:59:51.007Z,83.82
2019-06-10T02:02:24.091Z,83.85
2019-06-10T02:04:51.859Z,83.37
2019-06-10T02:07:22.761Z,83.60
2019-06-10T02:09:48.164Z,84.13
2019-06-10T02:12:17.610Z,84.05
2019-06-10T02:14:44.480Z,85.42
2019-06-10T02:17:13.655Z,84.58
2019-06-10T02:19:43.715Z,84.57
2019-06-10T02:22:16.317Z,84.68
2019-06-10T02:24:42.035Z,85.54
2019-06-10T02:27:13.011Z,84.96
2019-06-10T02:29:41.266Z,85.64
2019-06-10T02:32:12.393Z,85.00
2019-06-10T02:34:59.946Z,85.80
2019-06-10T02:37:13.638Z,85.49
2019-06-10T02:39:39.740Z,85.12
2019-06-10T02:42:09.075Z,84.85
2019-06-10T02:44:38.764Z,85.37
2019-06-10T02:47:06.098Z,85.14
2019-06-10T02:49:48.131Z,84.96
2019-06-10T02:52:04.902Z,84.65
2019-06-10T02:54:35.826Z,85.31
2019-06-10T02:57:04.391Z,86.02
2019-06-10T02:59:32.862Z,85.50
2019-06-10T03:02:03.125Z,86.29
2019-06-10T03:04:36.475Z,86.10
2019-06-10T03:06:59.684Z,86.08
2019-06-10T03:09:31.761Z,87.10
2019-06-10T03:11:55.993Z,87.83
2019-06-10T03:14:25.720Z,86.38
2019-06-10T03:16:56.764Z,87.00
2019-06-10T03:19:42.263Z,86.60
2019-06-10T03:21:58.061Z,87.76
2019-06-10T03:24:25.460Z,87.01
2019-06-10T03:26:53.148Z,86.79
2019-06-10T03:29:21.278Z,86.70
2019-06-10T03:31:55.395Z,86.87
2019-06-10T03:34:33.639Z,87.09
2019-06-10T03:36:56.676Z,86.25
2019-06-10T03:39:26.825Z,86.84
2019-06-10T03:41:56.125Z,86.81
2019-06-10T03:44:24.945Z,85.94
2019-06-10T03:46:59.351Z,86.02
2019-06-10T03:49:27.493Z,86.52
2019-06-10T03:51:55.764Z,87.00
2019-06-10T03:54:28.242Z,87.04
2019-06-10T03:56:54.754Z,86.61
2019-06-10T03:59:24.666Z,86.69
2019-06-10T04:01:52.972Z,86.56
2019-06-10T04:04:23.382Z,86.04
2019-06-10T04:06:49.451Z,85.81
2019-06-10T04:09:17.436Z,86.09
2019-06-10T04:11:44.847Z,85.80
2019-06-10T04:14:12.991Z,85.74
2019-06-10T04:16:43.442Z,86.06
2019-06-10T04:19:13.127Z,85.47
2019-06-10T04:21:43.036Z,85.69
2019-06-10T04:24:09.687Z,85.53
2019-06-10T04:26:36.946Z,86.12
2019-06-10T04:29:04.473Z,86.75
2019-06-10T04:31:32.987Z,85.96
2019-06-10T04:34:02.937Z,85.32
2019-06-10T04:36:29.792Z,85.12
2019-06-10T04:38:57.130Z,84.52
2019-06-10T04:41:24.972Z,84.83
2019-06-10T04:43:53.363Z,84.65
2019-06-10T04:46:23.214Z,85.16
2019-06-10T04:48:49.601Z,85.07
2019-06-10T04:51:17.062Z,85.47
2019-06-10T04:53:44.224Z,86.28
2019-06-10T04:56:12.283Z,84.64
2019-06-10T04:58:43.024Z,84.75
2019-06-10T05:01:12.021Z,85.37
2019-06-10T05:03:39.040Z,84.68
2019-06-10T05:06:06.367Z,85.50
2019-06-10T05:08:34.007Z,85.07
2019-06-10T05:11:03.725Z,85.42
2019-06-10T05:13:33.253Z,86.07
2019-06-10T05:16:00.167Z,86.99
2019-06-10T05:18:28.733Z,87.05
2019-06-10T05:20:58.679Z,87.48
2019-06-10T05:23:26.390Z,87.83
2019-06-10T05:25:56.217Z,87.74
2019-06-10T05:28:24.478Z,87.14
2019-06-10T05:30:53.172Z,87.79
2019-06-10T05:33:22.818Z,87.37
2019-06-10T05:35:49.894Z,87.09
2019-06-10T05:38:17.055Z,87.78
2019-06-10T05:40:44.255Z,86.74
2019-06-10T05:43:13.042Z,87.44
2019-06-10T05:45:42.454Z,87.51
2019-06-10T05:48:09.787Z,87.80
2019-06-10T05:50:36.929Z,87.81
2019-06-10T05:53:04.551Z,87.23
2019-06-10T05:55:33.741Z,86.90
2019-06-10T05:58:03.135Z,86.17
2019-06-10T06:00:33.445Z,85.40
2019-06-10T06:03:02.623Z,84.88
2019-06-10T06:05:30.195Z,84.76
2019-06-10T06:08:04.750Z,85.70
2019-06-10T06:10:27.362Z,85.16
2019-06-10T06:12:55.002Z,85.57
2019-06-10T06:15:22.675Z,85.38
2019-06-10T06:18:05.724Z,85.98
2019-06-10T06:20:19.832Z,85.86
2019-06-10T06:22:47.111Z,85.86
2019-06-10T06:25:15.698Z,83.59
2019-06-10T06:27:43.253Z,83.71
2019-06-10T06:30:18.597Z,84.80
2019-06-10T06:32:43.611Z,83.75
2019-06-10T06:35:12.656Z,83.58
2019-06-10T06:37:39.899Z,82.44
2019-06-10T06:40:07.786Z,82.88
2019-06-10T06:42:36.779Z,82.37
2019-06-10T06:45:06.055Z,83.57
2019-06-10T06:47:35.624Z,83.12
2019-06-10T06:50:04.254Z,82.45
2019-06-10T06:53:04.939Z,83.11
2019-06-10T06:55:02.476Z,82.63
2019-06-10T06:57:33.283Z,82.14
2019-06-10T06:59:59.231Z,82.73
2019-06-10T07:02:26.534Z,82.71
2019-06-10T07:04:53.703Z,82.28
2019-06-10T07:07:22.246Z,82.17
2019-06-10T07:09:52.630Z,82.59
2019-06-10T07:12:23.065Z,81.75
2019-06-10T07:14:52.628Z,81.48
2019-06-10T07:17:22.600Z,82.60
2019-06-10T07:19:49.204Z,82.55
2019-06-10T07:22:16.538Z,80.68
2019-06-10T07:24:47.634Z,80.42
2019-06-10T07:27:13.768Z,80.86
2019-06-10T07:29:46.850Z,79.87
2019-06-10T07:32:12.396Z,79.99
2019-06-10T07:34:40.455Z,81.12
2019-06-10T07:37:09.008Z,81.60
2019-06-10T07:39:36.867Z,81.24
2019-06-10T07:42:05.594Z,81.05
2019-06-10T07:44:34.569Z,81.01
2019-06-10T07:47:02.725Z,78.98
2019-06-10T07:49:32.278Z,79.52
2019-06-10T07:52:12.004Z,80.21
2019-06-10T07:54:29.305Z,80.01
2019-06-10T07:56:56.742Z,80.40
2019-06-10T07:59:24.023Z,80.60
2019-06-10T08:01:54.856Z,81.25
2019-06-10T08:04:22.523Z,80.36
2019-06-10T08:06:52.870Z,81.32
2019-06-10T08:09:22.736Z,81.80
2019-06-10T08:11:54.450Z,81.58
2019-06-10T08:14:22.290Z,81.05
2019-06-10T08:16:53.124Z,80.82
2019-06-10T08:19:34.543Z,80.49
2019-06-10T08:21:53.515Z,80.53
2019-06-10T08:24:22.152Z,80.83
2019-06-10T08:26:53.072Z,80.16
2019-06-10T08:29:23.219Z,79.42
2019-06-10T08:31:50.144Z,80.29
2019-06-10T08:34:22.249Z,79.79
2019-06-10T08:36:54.691Z,80.04
2019-06-10T08:39:24.312Z,79.38
2019-06-10T08:41:52.793Z,78.58
2019-06-10T08:44:22.893Z,77.76
2019-06-10T08:46:49.635Z,76.37
2019-06-10T08:49:16.871Z,76.14
2019-06-10T08:51:50.202Z,75.26
2019-06-10T08:54:18.060Z,74.54
2019-06-10T08:56:49.006Z,75.28
2019-06-10T08:59:14.671Z,75.16
2019-06-10T09:01:48.337Z,75.74
2019-06-10T09:04:13.325Z,74.74
2019-06-10T09:06:44.089Z,74.91
2019-06-10T09:09:12.849Z,75.80
2019-06-10T09:11:43.162Z,76.33
2019-06-10T09:14:09.654Z,77.10
2019-06-10T09:16:40.124Z,77.59
2019-06-10T09:19:08.610Z,77.55
2019-06-10T09:21:35.778Z,77.36
2019-06-10T09:24:03.849Z,77.23
2019-06-10T09:26:33.736Z,77.20
2019-06-10T09:29:03.204Z,78.11
2019-06-10T09:31:30.352Z,79.40
2019-06-10T09:34:00.012Z,76.90
2019-06-10T09:36:27.264Z,77.30
2019-06-10T09:38:58.354Z,74.71
2019-06-10T09:41:36.548Z,77.61
2019-06-10T09:43:56.941Z,75.40
2019-06-10T09:46:25.903Z,75.76
2019-06-10T09:48:55.941Z,74.81
2019-06-10T09:51:24.749Z,74.67
2019-06-10T09:54:02.410Z,74.25
2019-06-10T09:56:23.025Z,74.66
2019-06-10T09:58:54.728Z,74.19
2019-06-10T10:01:20.288Z,74.18
2019-06-10T10:03:53.836Z,73.52
2019-06-10T10:06:16.861Z,72.33
2019-06-10T10:08:46.057Z,73.51
2019-06-10T10:11:13.724Z,74.11
2019-06-10T10:13:44.142Z,73.44
2019-06-10T10:16:09.947Z,73.54
2019-06-10T10:18:37.217Z,72.46
2019-06-10T10:21:04.757Z,70.62
2019-06-10T10:23:48.371Z,71.76
2019-06-10T10:26:03.418Z,71.83
2019-06-10T10:28:33.206Z,72.39
2019-06-10T10:31:00.210Z,72.62
2019-06-10T10:33:30.283Z,73.62
2019-06-10T10:35:57.258Z,74.69
2019-06-10T10:38:24.500Z,72.98
2019-06-10T10:40:56.478Z,74.20
2019-06-10T10:43:28.424Z,73.21
2019-06-10T10:45:53.257Z,75.33
2019-06-10T10:48:19.600Z,74.10
2019-06-10T10:50:49.179Z,72.98
2019-06-10T10:53:16.517Z,75.60
2019-06-10T10:55:44.073Z,73.36
2019-06-10T10:58:14.844Z,75.20
2019-06-10T11:00:57.852Z,75.66
2019-06-10T11:03:25.353Z,73.38
2019-06-10T11:06:00.433Z,75.77
2019-06-10T11:08:22.804Z,76.35
2019-06-10T11:10:55.458Z,73.51
2019-06-10T11:13:24.198Z,73.01
2019-06-10T11:15:55.396Z,74.73
2019-06-10T11:18:22.751Z,69.81
2019-06-10T11:20:51.402Z,71.06
2019-06-10T11:23:19.256Z,72.13
2019-06-10T11:25:47.730Z,73.49
2019-06-10T11:28:14.965Z,74.75
2019-06-10T11:30:42.700Z,73.33
2019-06-10T11:33:10.240Z,74.66
2019-06-10T11:35:37.423Z,72.60
2019-06-10T11:38:04.690Z,72.03
2019-06-10T11:40:34.172Z,70.55
2019-06-10T11:43:01.109Z,69.80
2019-06-10T11:45:32.835Z,69.56
2019-06-10T11:48:02.459Z,68.94
2019-06-10T11:50:29.830Z,68.42
2019-06-10T11:53:00.551Z,70.98
2019-06-10T11:55:26.522Z,69.97
2019-06-10T11:57:56.031Z,71.16
2019-06-10T12:00:24.441Z,69.62
2019-06-10T12:02:53.717Z,71.51
2019-06-10T12:05:23.530Z,70.98
2019-06-10T12:07:54.547Z,71.97
2019-06-10T12:10:23.324Z,72.48
2019-06-10T12:12:54.056Z,71.16
2019-06-10T12:15:19.656Z,70.30
2019-06-10T12:17:53.507Z,70.80
2019-06-10T12:20:16.840Z,70.60
2019-06-10T12:22:43.972Z,71.42
2019-06-10T12:25:31.331Z,70.01
2019-06-10T12:27:43.411Z,70.46
2019-06-10T12:30:13.301Z,72.18
2019-06-10T12:32:42.554Z,70.84
2019-06-10T12:35:13.518Z,70.87
2019-06-10T12:37:39.855Z,69.67
2019-06-10T12:40:12.791Z,69.20
2019-06-10T12:42:41.952Z,70.25
2019-06-10T12:45:12.768Z,70.66
2019-06-10T12:47:42.384Z,69.50
2019-06-10T12:50:12.166Z,70.27
2019-06-10T12:52:39.550Z,69.36
2019-06-10T12:55:07.536Z,69.11
2019-06-10T12:57:35.377Z,70.77
2019-06-10T13:00:17.466Z,71.21
2019-06-10T13:02:35.714Z,72.65
2019-06-10T13:05:07.041Z,73.35
2019-06-10T13:07:36.840Z,73.53
2019-06-10T13:10:06.330Z,75.16
2019-06-10T13:12:33.434Z,75.30
2019-06-10T13:15:04.790Z,74.21
2019-06-10T13:17:29.793Z,76.54
2019-06-10T13:19:57.352Z,75.13
2019-06-10T13:22:24.638Z,75.22
2019-06-10T13:24:53.556Z,73.55
2019-06-10T13:27:22.724Z,74.08
2019-06-10T13:29:49.973Z,74.79
2019-06-10T13:32:17.458Z,74.78
2019-06-10T13:34:45.285Z,75.76
2019-06-10T13:37:16.100Z,75.49
2019-06-10T13:39:43.059Z,73.34
2019-06-10T13:42:13.671Z,73.86
2019-06-10T13:44:42.639Z,74.58
2019-06-10T13:47:12.607Z,75.30
2019-06-10T13:49:38.533Z,73.87
2019-06-10T13:52:11.578Z,75.02
2019-06-10T13:54:35.342Z,75.71
2019-06-10T13:57:04.085Z,74.77
2019-06-10T13:59:31.761Z,73.64
2019-06-10T14:01:59.896Z,73.31
2019-06-10T14:04:28.258Z,73.72
2019-06-10T14:06:57.180Z,74.86
2019-06-10T14:09:25.319Z,74.91
2019-06-10T14:11:52.502Z,75.79
2019-06-10T14:14:20.198Z,74.77
2019-06-10T14:16:49.066Z,73.66
2019-06-10T14:19:16.503Z,73.99
2019-06-10T14:21:44.105Z,73.69
2019-06-10T14:24:15.826Z,74.43
2019-06-10T14:26:42.937Z,75.25
2019-06-10T14:29:14.094Z,75.22
2019-06-10T14:31:44.231Z,74.71
2019-06-10T14:34:12.089Z,73.84
2019-06-10T14:36:39.366Z,72.91
2019-06-10T14:39:08.117Z,73.61
2019-06-10T14:41:35.383Z,74.27
2019-06-10T14:44:04.462Z,73.64
2019-06-10T14:46:32.984Z,74.70
2019-06-10T14:49:02.333Z,74.49
2019-06-10T14:51:32.476Z,75.20
2019-06-10T14:53:59.325Z,76.11
2019-06-10T14:56:26.576Z,75.22
2019-06-10T14:58:54.100Z,76.57
2019-06-10T15:01:25.602Z,75.86
2019-06-10T15:03:52.316Z,75.21
2019-06-10T15:06:19.975Z,75.28
2019-06-10T15:08:48.526Z,75.67
2019-06-10T15:11:16.127Z,75.89
2019-06-10T15:13:43.591Z,77.20
2019-06-10T15:16:12.323Z,77.33
2019-06-10T15:18:39.873Z,77.18
2019-06-10T15:21:08.635Z,77.40
2019-06-10T15:23:36.008Z,76.90
2019-06-10T15:26:05.504Z,76.84
2019-06-10T15:28:32.703Z,77.24
2019-06-10T15:30:59.908Z,75.54
2019-06-10T15:33:27.057Z,76.30
2019-06-10T15:35:55.004Z,77.21
2019-06-10T15:38:23.253Z,76.37
2019-06-10T15:40:53.283Z,77.31
2019-06-10T15:43:23.356Z,75.73
2019-06-10T15:45:49.886Z,73.69
2019-06-10T15:48:18.779Z,73.93
2019-06-10T15:50:46.266Z,74.47
2019-06-10T15:53:15.961Z,75.18
2019-06-10T15:56:09.048Z,75.73
2019-06-10T15:58:12.918Z,75.62
2019-06-10T16:00:42.585Z,75.42
2019-06-10T16:03:12.097Z,74.96
2019-06-10T16:05:39.604Z,75.24
2019-06-10T16:08:07.054Z,74.71
2019-06-10T16:10:34.499Z,77.26
2019-06-10T16:13:03.452Z,76.51
2019-06-10T16:15:33.035Z,76.23
2019-06-10T16:18:02.816Z,76.45
2019-06-10T16:20:32.191Z,77.72
2019-06-10T16:22:58.851Z,78.99
2019-06-10T16:25:26.732Z,79.13
2019-06-10T16:27:54.685Z,81.16
2019-06-10T16:30:23.188Z,80.61
2019-06-10T16:32:52.970Z,80.11
2019-06-10T16:35:23.209Z,80.05
2019-06-10T16:37:49.955Z,81.34
2019-06-10T16:40:17.226Z,83.07
2019-06-10T16:42:44.345Z,83.83
2019-06-10T16:45:12.945Z,83.06
2019-06-10T16:47:42.865Z,81.36
2019-06-10T16:50:12.233Z,79.67
2019-06-10T16:52:39.617Z,78.38
2019-06-10T16:55:07.326Z,80.15
2019-06-10T16:57:34.478Z,80.06
2019-06-10T17:00:11.125Z,79.56
2019-06-10T17:02:34.546Z,81.46
2019-06-10T17:05:04.280Z,80.24
2019-06-10T17:07:32.976Z,80.13
2019-06-10T17:10:02.326Z,80.57
2019-06-10T17:12:30.992Z,80.01
2019-06-10T17:14:58.738Z,80.84
2019-06-10T17:17:27.903Z,80.82
2019-06-10T17:19:55.605Z,81.56
2019-06-10T17:22:24.012Z,80.91
2019-06-10T17:24:53.691Z,81.08
2019-06-10T17:27:23.205Z,81.37
2019-06-10T17:29:52.006Z,82.60
2019-06-10T17:32:19.794Z,82.17
2019-06-10T17:34:47.456Z,81.55
2019-06-10T17:37:15.041Z,81.21
2019-06-10T17:39:42.897Z,81.51
2019-06-10T17:42:12.261Z,81.70
2019-06-10T17:44:39.956Z,81.76
2019-06-10T17:47:07.198Z,81.92
2019-06-10T17:49:34.962Z,81.86
2019-06-10T17:52:02.670Z,81.97
2019-06-10T17:54:30.408Z,82.37
2019-06-10T17:56:57.656Z,82.05
2019-06-10T17:59:25.317Z,83.42
2019-06-10T18:01:52.542Z,82.63
2019-06-10T18:04:31.448Z,82.46
2019-06-10T18:07:02.267Z,82.96
2019-06-10T18:09:32.702Z,82.35
2019-06-10T18:11:58.900Z,83.04
2019-06-10T18:14:28.113Z,82.47
2019-06-10T18:16:57.870Z,83.64
2019-06-10T18:19:26.254Z,83.45
2019-06-10T18:21:53.590Z,84.18
2019-06-10T18:24:24.420Z,83.71
2019-06-10T18:26:52.949Z,84.25
2019-06-10T18:29:22.799Z,84.02
2019-06-10T18:31:49.769Z,83.29
2019-06-10T18:34:16.963Z,82.00
2019-06-10T18:36:44.134Z,82.42
2019-06-10T18:39:12.369Z,82.96
2019-06-10T18:41:40.235Z,84.63
2019-06-10T18:44:19.971Z,85.32
2019-06-10T18:46:37.810Z,84.56
2019-06-10T18:49:05.195Z,84.48
2019-06-10T18:51:35.598Z,85.21
2019-06-10T18:54:02.141Z,85.70
2019-06-10T18:56:33.665Z,85.42
2019-06-10T18:59:15.674Z,85.73
2019-06-10T19:01:30.278Z,85.64
2019-06-10T19:03:57.997Z,86.09
2019-06-10T19:06:25.299Z,86.58
2019-06-10T19:08:53.072Z,87.15
2019-06-10T19:11:20.469Z,87.38
2019-06-10T19:13:48.084Z,85.78
2019-06-10T19:16:15.275Z,85.53
2019-06-10T19:18:43.173Z,85.52
2019-06-10T19:21:12.918Z,85.52
2019-06-10T19:23:43.531Z,85.27
2019-06-10T19:26:09.269Z,86.55
2019-06-10T19:28:38.738Z,86.05
2019-06-10T19:31:07.108Z,87.30
2019-06-10T19:33:35.816Z,87.72
2019-06-10T19:36:03.313Z,87.57
2019-06-10T19:38:32.411Z,87.00
2019-06-10T19:40:59.660Z,86.55
2019-06-10T19:43:26.792Z,85.57
2019-06-10T19:45:54.384Z,85.84
2019-06-10T19:48:21.517Z,85.44
2019-06-10T19:50:51.356Z,86.75
2019-06-10T19:53:18.178Z,87.55
2019-06-10T19:55:46.094Z,88.00
2019-06-10T19:58:13.835Z,87.82
2019-06-10T20:00:41.604Z,87.52
2019-06-10T20:03:10.100Z,87.22
2019-06-10T20:05:38.075Z,87.76
2019-06-10T20:08:05.342Z,88.47
2019-06-10T20:10:34.018Z,89.06
2019-06-10T20:13:01.376Z,89.69
2019-06-10T20:15:28.759Z,90.06
2019-06-10T20:17:56.228Z,89.56
2019-06-10T20:20:23.424Z,89.18
2019-06-10T20:22:52.824Z,89.75
2019-06-10T20:25:22.325Z,89.86
2019-06-10T20:27:52.187Z,89.68
2019-06-10T20:30:25.191Z,89.42
2019-06-10T20:32:51.868Z,89.53
2019-06-10T20:35:18.201Z,90.08
2019-06-10T20:37:47.266Z,89.28
2019-06-10T20:40:15.870Z,89.78
2019-06-10T20:42:44.395Z,89.57
2019-06-10T20:45:13.137Z,89.20
2019-06-10T20:47:44.648Z,89.73
2019-06-10T20:50:12.959Z,89.53
2019-06-10T20:52:39.989Z,89.99
2019-06-10T20:55:07.793Z,90.02
2019-06-10T20:57:49.967Z,90.09
2019-06-10T21:00:19.745Z,90.22
2019-06-10T21:02:36.471Z,90.33
2019-06-10T21:05:05.744Z,90.53
2019-06-10T21:07:34.939Z,89.85
2019-06-10T21:10:04.438Z,89.96
2019-06-10T21:12:32.719Z,90.48
2019-06-10T21:15:02.226Z,90.19
2019-06-10T21:17:29.075Z,90.27
2019-06-10T21:19:57.497Z,90.69
2019-06-10T21:22:24.778Z,90.49
2019-06-10T21:24:53.548Z,90.75
2019-06-10T21:27:23.876Z,91.12
2019-06-10T21:29:54.458Z,91.05
2019-06-10T21:32:20.527Z,91.13
2019-06-10T21:34:49.241Z,90.71
2019-06-10T21:37:16.528Z,90.59
2019-06-10T21:39:44.824Z,89.78
2019-06-10T21:42:12.817Z,90.14
2019-06-10T21:44:40.139Z,90.72
2019-06-10T21:47:07.781Z,91.27
2019-06-10T21:49:35.184Z,91.46
2019-06-10T21:52:03.046Z,90.33
2019-06-10T21:54:32.905Z,90.27
2019-06-10T21:56:59.876Z,90.76
2019-06-10T21:59:27.412Z,90.75
2019-06-10T22:01:54.659Z,90.65
2019-06-10T22:04:22.546Z,90.21
2019-06-10T22:06:49.737Z,90.49
2019-06-10T22:09:17.218Z,88.32
2019-06-10T22:11:45.935Z,88.78
2019-06-10T22:14:13.211Z,88.26
2019-06-10T22:16:42.146Z,88.32
2019-06-10T22:19:09.914Z,88.50
2019-06-10T22:21:37.098Z,87.90
2019-06-10T22:24:04.487Z,87.85
2019-06-10T22:26:32.232Z,88.75
2019-06-10T22:29:00.051Z,87.67
2019-06-10T22:31:27.312Z,87.84
2019-06-10T22:33:56.255Z,88.41
2019-06-10T22:36:23.703Z,88.34
2019-06-10T22:38:55.602Z,88.45
2019-06-10T22:41:22.584Z,88.20
2019-06-10T22:43:52.162Z,88.59
2019-06-10T22:46:19.842Z,89.26
2019-06-10T22:48:47.178Z,88.80
2019-06-10T22:51:14.860Z,88.53
2019-06-10T22:53:42.646Z,88.16
2019-06-10T22:56:12.194Z,88.58
2019-06-10T22:58:39.225Z,88.88
2019-06-10T23:01:07.287Z,88.53
2019-06-10T23:03:34.637Z,87.56
2019-06-10T23:06:02.650Z,88.65
2019-06-10T23:08:33.256Z,87.35
2019-06-10T23:11:02.658Z,87.92
2019-06-10T23:13:29.528Z,87.87
2019-06-10T23:15:58.293Z,86.55
2019-06-10T23:18:25.793Z,87.01
2019-06-10T23:20:56.213Z,88.31
2019-06-10T23:23:23.621Z,86.56
2019-06-10T23:25:51.687Z,86.61
2019-06-10T23:28:22.054Z,87.73
2019-06-10T23:30:50.019Z,89.25
2019-06-10T23:33:17.288Z,87.81
2019-06-10T23:35:47.528Z,88.46
2019-06-10T23:38:13.816Z,88.50
2019-06-10T23:40:42.978Z,87.73
2019-06-10T23:43:10.316Z,88.98
2019-06-10T23:45:37.530Z,89.42
2019-06-10T23:48:05.165Z,89.21
2019-06-10T23:50:33.855Z,89.00
2019-06-10T23:53:07.249Z,88.02
2019-06-10T23:55:32.016Z,88.83
2019-06-10T23:58:00.352Z,89.10
